createdAt,value
2022-12-18T00:00:25.758Z,80.38
2022-12-18T00:03:16.604Z,79.84
2022-12-18T00:05:53.467Z,79.91
2022-12-18T00:08:22.152Z,80.29
2022-12-18T00:10:50.822Z,79.82
2022-12-18T00:13:19.894Z,79.34
2022-12-18T00:15:48.707Z,79.31
2022-12-18T00:18:20.583Z,78.97
2022-12-18T00:20:49.734Z,79.46
2022-12-18T00:23:18.592Z,80.04
2022-12-18T00:25:47.303Z,79.60
2022-12-18T00:28:15.992Z,79.32
2022-12-18T00:30:44.785Z,79.20
2022-12-18T00:33:13.465Z,79.00
2022-12-18T00:35:42.084Z,78.97
2022-12-18T00:38:12.261Z,79.16
2022-12-18T00:40:41.015Z,79.62
2022-12-18T00:43:13.067Z,78.60
2022-12-18T00:45:42.408Z,78.37
2022-12-18T00:48:11.399Z,78.17
2022-12-18T00:50:40.074Z,77.71
2022-12-18T00:53:12.854Z,77.77
2022-12-18T00:55:47.054Z,78.66
2022-12-18T00:58:18.234Z,78.75
2022-12-18T01:00:47.230Z,78.48
2022-12-18T01:03:16.272Z,77.92
2022-12-18T01:05:45.974Z,78.33
2022-12-18T01:08:14.559Z,78.46
2022-12-18T01:10:45.079Z,79.26
2022-12-18T01:13:13.850Z,78.95
2022-12-18T01:15:50.874Z,78.58
2022-12-18T01:18:19.555Z,78.59
2022-12-18T01:20:48.304Z,78.51
2022-12-18T01:23:17.180Z,79.09
2022-12-18T01:25:45.954Z,79.78
2022-12-18T01:28:14.709Z,80.55
2022-12-18T01:30:43.431Z,80.33
2022-12-18T01:33:12.186Z,80.43
2022-12-18T01:35:44.714Z,80.33
2022-12-18T01:38:13.158Z,80.65
2022-12-18T01:40:42.603Z,81.22
2022-12-18T01:43:12.307Z,81.31
2022-12-18T01:45:41.223Z,80.93
2022-12-18T01:48:10.814Z,80.40
2022-12-18T01:50:44.305Z,80.38
2022-12-18T01:53:18.005Z,80.55
2022-12-18T01:55:56.451Z,81.29
2022-12-18T01:58:37.029Z,81.08
2022-12-18T02:01:05.868Z,80.82
2022-12-18T02:03:35.262Z,80.05
2022-12-18T02:06:30.915Z,79.78
2022-12-18T02:09:28.455Z,80.26
2022-12-18T02:12:26.667Z,80.14
2022-12-18T02:15:43.416Z,79.65
2022-12-18T02:18:42.073Z,79.50
2022-12-18T02:21:50.931Z,79.80
2022-12-18T02:24:33.469Z,80.39
2022-12-18T02:27:07.871Z,80.44
2022-12-18T02:30:02.484Z,80.52
2022-12-18T02:32:38.415Z,80.40
2022-12-18T02:35:12.214Z,80.62
2022-12-18T02:37:45.461Z,81.29
2022-12-18T02:40:15.531Z,80.99
2022-12-18T02:42:44.398Z,80.72
2022-12-18T02:45:13.463Z,80.39
2022-12-18T02:47:48.688Z,80.63
2022-12-18T02:50:39.412Z,80.95
2022-12-18T02:54:01.296Z,80.57
2022-12-18T02:56:39.752Z,80.69
2022-12-18T02:59:24.567Z,80.44
2022-12-18T03:02:12.662Z,80.75
2022-12-18T03:04:57.492Z,81.37
2022-12-18T03:07:42.890Z,80.76
2022-12-18T03:10:18.341Z,80.24
2022-12-18T03:13:00.173Z,80.58
2022-12-18T03:15:53.054Z,80.36
2022-12-18T03:18:38.094Z,80.28
2022-12-18T03:21:09.380Z,79.91
2022-12-18T03:23:51.562Z,79.73
2022-12-18T03:26:26.687Z,80.06
2022-12-18T03:29:05.934Z,80.29
2022-12-18T03:31:34.950Z,80.42
2022-12-18T03:34:12.653Z,79.65
2022-12-18T03:36:45.020Z,79.20
2022-12-18T03:39:15.011Z,79.41
2022-12-18T03:42:03.568Z,79.85
2022-12-18T03:45:15.685Z,80.28
2022-12-18T03:48:07.497Z,80.11
2022-12-18T03:51:06.896Z,79.64
2022-12-18T03:53:47.302Z,79.57
2022-12-18T03:56:18.476Z,79.41
2022-12-18T03:58:49.210Z,79.77
2022-12-18T04:01:35.707Z,80.07
2022-12-18T04:04:07.435Z,79.65
2022-12-18T04:06:40.075Z,79.39
2022-12-18T04:09:09.626Z,79.18
2022-12-18T04:11:45.312Z,79.55
2022-12-18T04:14:18.231Z,79.40
2022-12-18T04:16:48.227Z,78.73
2022-12-18T04:19:18.204Z,78.64
2022-12-18T04:21:49.311Z,78.71
2022-12-18T04:24:18.326Z,79.38
2022-12-18T04:26:57.250Z,79.01
2022-12-18T04:29:30.227Z,78.68
2022-12-18T04:31:59.213Z,78.83
2022-12-18T04:34:28.610Z,78.81
2022-12-18T04:36:57.544Z,79.38
2022-12-18T04:39:27.592Z,79.61
2022-12-18T04:42:04.520Z,79.48
2022-12-18T04:44:33.244Z,79.26
2022-12-18T04:47:02.233Z,79.41
2022-12-18T04:49:30.884Z,79.64
2022-12-18T04:51:59.732Z,80.32
2022-12-18T04:54:28.600Z,80.09
2022-12-18T04:57:02.668Z,80.03
2022-12-18T04:59:32.990Z,79.87
2022-12-18T05:02:02.000Z,80.00
2022-12-18T05:04:31.219Z,80.53
2022-12-18T05:07:00.238Z,80.57
2022-12-18T05:09:29.095Z,80.12
2022-12-18T05:12:14.917Z,80.23
2022-12-18T05:14:48.802Z,80.41
2022-12-18T05:17:18.784Z,80.72
2022-12-18T05:19:48.417Z,80.71
2022-12-18T05:22:20.468Z,80.48
2022-12-18T05:24:50.108Z,80.45
2022-12-18T05:27:21.865Z,80.67
2022-12-18T05:29:51.756Z,80.90
2022-12-18T05:32:20.813Z,80.41
2022-12-18T05:34:50.790Z,80.36
2022-12-18T05:37:19.865Z,80.20
2022-12-18T05:39:49.877Z,80.65
2022-12-18T05:42:19.406Z,81.20
2022-12-18T05:44:48.610Z,80.81
2022-12-18T05:47:17.908Z,80.28
2022-12-18T05:49:46.747Z,80.07
2022-12-18T05:52:15.918Z,80.28
2022-12-18T05:54:46.691Z,80.77
2022-12-18T05:57:15.619Z,80.33
2022-12-18T05:59:44.805Z,79.96
2022-12-18T06:02:13.763Z,80.08
2022-12-18T06:04:42.672Z,80.14
2022-12-18T06:07:15.083Z,80.78
2022-12-18T06:09:44.799Z,81.12
2022-12-18T06:12:13.504Z,80.63
2022-12-18T06:14:42.662Z,80.37
2022-12-18T06:17:12.085Z,80.18
2022-12-18T06:19:40.985Z,80.09
2022-12-18T06:22:09.783Z,80.43
2022-12-18T06:24:38.525Z,80.80
2022-12-18T06:27:07.328Z,80.88
2022-12-18T06:29:35.847Z,80.30
2022-12-18T06:32:04.794Z,80.32
2022-12-18T06:34:34.772Z,80.10
2022-12-18T06:37:03.777Z,80.21
2022-12-18T06:39:33.658Z,80.53
2022-12-18T06:42:06.345Z,80.47
2022-12-18T06:44:34.980Z,80.27
2022-12-18T06:47:03.934Z,80.33
2022-12-18T06:49:34.242Z,80.80
2022-12-18T06:52:03.627Z,80.68
2022-12-18T06:54:32.822Z,80.40
2022-12-18T06:57:02.129Z,79.95
2022-12-18T06:59:31.315Z,79.68
2022-12-18T07:02:00.234Z,79.48
2022-12-18T07:04:34.415Z,79.90
2022-12-18T07:07:03.431Z,78.85
2022-12-18T07:09:32.195Z,78.53
2022-12-18T07:12:01.099Z,78.21
2022-12-18T07:14:29.733Z,77.94
2022-12-18T07:16:58.685Z,77.78
2022-12-18T07:19:27.746Z,77.98
2022-12-18T07:21:56.473Z,78.30
2022-12-18T07:24:25.217Z,77.85
2022-12-18T07:26:53.918Z,77.70
2022-12-18T07:29:22.817Z,77.85
2022-12-18T07:31:51.474Z,77.87
2022-12-18T07:34:20.413Z,78.31
2022-12-18T07:36:49.574Z,78.66
2022-12-18T07:39:18.144Z,78.71
2022-12-18T07:43:06.237Z,78.51
2022-12-18T07:45:51.834Z,79.10
2022-12-18T07:48:20.387Z,79.03
2022-12-18T07:50:49.287Z,78.76
2022-12-18T07:53:18.015Z,79.01
2022-12-18T07:56:25.089Z,79.15
2022-12-18T07:58:41.729Z,79.16
2022-12-18T08:01:26.280Z,79.02
2022-12-18T08:04:09.040Z,79.37
2022-12-18T08:08:45.551Z,79.39
2022-12-18T08:14:54.264Z,78.59
2022-12-18T08:17:40.274Z,77.91
2022-12-18T08:20:22.305Z,78.08
2022-12-18T08:23:28.616Z,77.63
2022-12-18T08:26:51.834Z,77.87
2022-12-18T08:29:50.301Z,77.33
2022-12-18T08:32:19.384Z,77.81
2022-12-18T08:34:48.055Z,77.90
2022-12-18T08:37:17.050Z,77.26
2022-12-18T08:39:46.668Z,76.86
2022-12-18T08:42:34.380Z,75.85
2022-12-18T08:45:04.901Z,75.94
2022-12-18T08:47:33.885Z,76.69
2022-12-18T08:50:03.062Z,77.19
2022-12-18T08:52:33.941Z,77.01
2022-12-18T08:55:02.573Z,76.79
2022-12-18T09:00:41.336Z,76.37
2022-12-18T09:03:19.091Z,76.06
2022-12-18T09:05:48.177Z,75.42
2022-12-18T09:08:16.876Z,75.04
2022-12-18T09:10:47.217Z,74.41
2022-12-18T09:13:17.481Z,74.83
2022-12-18T09:15:52.395Z,74.98
2022-12-18T09:18:23.586Z,75.33
2022-12-18T09:20:54.127Z,75.80
2022-12-18T09:23:23.268Z,75.88
2022-12-18T09:25:51.741Z,75.93
2022-12-18T09:28:20.530Z,75.90
2022-12-18T09:30:50.758Z,76.26
2022-12-18T09:33:19.641Z,76.66
2022-12-18T09:35:48.493Z,76.88
2022-12-18T09:38:20.797Z,76.50
2022-12-18T09:40:57.283Z,76.04
2022-12-18T09:43:44.623Z,76.01
2022-12-18T09:46:27.298Z,75.79
2022-12-18T09:49:02.341Z,75.53
2022-12-18T09:51:44.818Z,75.12
2022-12-18T09:54:25.208Z,75.25
2022-12-18T09:56:55.359Z,75.29
2022-12-18T09:59:36.878Z,75.52
2022-12-18T10:02:23.340Z,75.30
2022-12-18T10:05:15.453Z,75.30
2022-12-18T10:08:02.281Z,75.24
2022-12-18T10:10:34.191Z,75.24
2022-12-18T10:13:37.336Z,75.70
2022-12-18T10:16:57.802Z,75.03
2022-12-18T10:19:29.064Z,75.14
2022-12-18T10:22:24.990Z,75.18
2022-12-18T10:25:03.531Z,75.72
2022-12-18T10:27:33.088Z,75.72
2022-12-18T10:30:14.212Z,75.76
2022-12-18T10:32:43.652Z,76.06
2022-12-18T10:35:29.961Z,76.31
2022-12-18T10:38:01.720Z,76.78
2022-12-18T10:40:31.024Z,76.33
2022-12-18T10:43:12.711Z,75.52
2022-12-18T10:45:43.306Z,75.00
2022-12-18T10:48:23.780Z,74.79
2022-12-18T10:51:12.240Z,75.27
2022-12-18T10:53:44.524Z,75.17
2022-12-18T10:56:13.521Z,74.17
2022-12-18T10:58:42.563Z,73.88
2022-12-18T11:01:21.336Z,73.55
2022-12-18T11:04:01.833Z,73.83
2022-12-18T11:06:31.291Z,74.56
2022-12-18T11:09:23.284Z,74.24
2022-12-18T11:11:55.055Z,73.38
2022-12-18T11:14:32.012Z,73.09
2022-12-18T11:17:31.709Z,73.14
2022-12-18T11:20:04.468Z,72.80
2022-12-18T11:22:36.535Z,72.61
2022-12-18T11:25:34.499Z,72.35
2022-12-18T11:28:23.693Z,72.53
2022-12-18T11:31:19.047Z,72.59
2022-12-18T11:34:30.266Z,73.72
2022-12-18T11:37:02.303Z,72.90
2022-12-18T11:39:58.110Z,72.88
2022-12-18T11:42:46.404Z,72.75
2022-12-18T11:45:15.162Z,72.56
2022-12-18T11:47:51.274Z,73.47
2022-12-18T11:50:44.834Z,73.77
2022-12-18T11:53:13.945Z,73.91
2022-12-18T11:56:07.959Z,73.91
2022-12-18T11:59:22.821Z,73.49
2022-12-18T12:01:56.719Z,73.91
2022-12-18T12:04:50.368Z,73.79
2022-12-18T12:08:04.127Z,73.95
2022-12-18T12:11:04.114Z,73.63
2022-12-18T12:13:45.163Z,73.76
2022-12-18T12:16:28.086Z,73.20
2022-12-18T12:19:09.033Z,72.06
2022-12-18T12:22:05.199Z,72.01
2022-12-18T12:24:54.856Z,72.36
2022-12-18T12:27:35.453Z,72.25
2022-12-18T12:30:10.550Z,72.49
2022-12-18T12:32:57.574Z,72.35
2022-12-18T12:35:37.265Z,72.95
2022-12-18T12:38:37.353Z,73.26
2022-12-18T12:41:31.034Z,73.24
2022-12-18T12:44:04.799Z,73.42
2022-12-18T12:46:40.728Z,73.86
2022-12-18T12:49:41.046Z,74.00
2022-12-18T12:52:18.034Z,72.67
2022-12-18T12:54:48.711Z,72.49
2022-12-18T12:58:18.008Z,72.64
2022-12-18T13:01:23.433Z,72.25
2022-12-18T13:04:02.419Z,72.72
2022-12-18T13:07:05.025Z,73.56
2022-12-18T13:09:36.779Z,73.83
2022-12-18T13:12:33.450Z,74.10
2022-12-18T13:15:22.930Z,74.01
2022-12-18T13:18:11.440Z,74.29
2022-12-18T13:21:10.090Z,74.32
2022-12-18T13:23:42.882Z,72.67
2022-12-18T13:26:19.896Z,72.15
2022-12-18T13:28:56.389Z,71.70
2022-12-18T13:31:30.958Z,72.09
2022-12-18T13:34:28.326Z,72.07
2022-12-18T13:37:34.282Z,72.51
2022-12-18T13:40:03.407Z,72.24
2022-12-18T13:43:00.535Z,71.64
2022-12-18T13:46:01.104Z,71.36
2022-12-18T13:48:37.337Z,71.03
2022-12-18T13:51:12.596Z,71.42
2022-12-18T13:53:53.215Z,71.33
2022-12-18T13:56:29.958Z,71.07
2022-12-18T13:59:38.423Z,70.88
2022-12-18T14:02:16.950Z,70.77
2022-12-18T14:04:48.400Z,70.67
2022-12-18T14:07:24.254Z,70.72
2022-12-18T14:10:12.181Z,71.67
2022-12-18T14:12:57.691Z,71.97
2022-12-18T14:15:45.549Z,71.43
2022-12-18T14:18:47.624Z,71.37
2022-12-18T14:21:33.889Z,71.65
2022-12-18T14:24:10.316Z,71.94
2022-12-18T14:26:39.168Z,72.60
2022-12-18T14:29:30.752Z,73.29
2022-12-18T14:32:19.676Z,73.77
2022-12-18T14:34:51.804Z,73.67
2022-12-18T14:37:28.465Z,73.82
2022-12-18T14:40:10.862Z,73.86
2022-12-18T14:42:39.688Z,74.14
2022-12-18T14:45:41.028Z,74.39
2022-12-18T14:48:42.428Z,74.52
2022-12-18T14:51:14.049Z,74.35
2022-12-18T14:53:57.155Z,74.27
2022-12-18T14:56:30.219Z,74.00
2022-12-18T14:59:27.287Z,73.77
2022-12-18T15:02:09.857Z,74.09
2022-12-18T15:04:44.910Z,74.52
2022-12-18T15:07:23.881Z,73.63
2022-12-18T15:10:09.401Z,73.37
2022-12-18T15:12:45.663Z,73.05
2022-12-18T15:15:56.458Z,73.12
2022-12-18T15:18:34.247Z,72.35
2022-12-18T15:21:35.887Z,71.68
2022-12-18T15:24:04.961Z,72.28
2022-12-18T15:26:39.501Z,72.07
2022-12-18T15:29:22.901Z,72.35
2022-12-18T15:32:21.182Z,72.64
2022-12-18T15:34:49.714Z,73.32
2022-12-18T15:37:18.545Z,73.24
2022-12-18T15:39:47.201Z,72.95
2022-12-18T15:42:34.313Z,72.90
2022-12-18T15:45:02.884Z,73.10
2022-12-18T15:47:31.333Z,73.38
2022-12-18T15:49:59.961Z,73.92
2022-12-18T15:52:28.658Z,73.64
2022-12-18T15:55:16.813Z,73.17
2022-12-18T15:57:45.422Z,73.26
2022-12-18T16:00:15.148Z,73.43
2022-12-18T16:02:43.890Z,74.16
2022-12-18T16:05:18.930Z,74.68
2022-12-18T16:07:48.174Z,74.87
2022-12-18T16:10:21.582Z,74.58
2022-12-18T16:13:23.139Z,74.56
2022-12-18T16:15:51.787Z,74.58
2022-12-18T16:19:03.018Z,74.47
2022-12-18T16:21:51.518Z,74.89
2022-12-18T16:24:34.266Z,74.59
2022-12-18T16:27:27.978Z,74.12
2022-12-18T16:29:56.506Z,74.26
2022-12-18T16:32:25.383Z,74.09
2022-12-18T16:34:54.467Z,74.27
2022-12-18T16:37:51.823Z,74.88
2022-12-18T16:40:22.289Z,74.94
2022-12-18T16:43:18.277Z,74.55
2022-12-18T16:46:20.914Z,74.46
2022-12-18T16:48:50.293Z,74.55
2022-12-18T16:51:21.032Z,74.60
2022-12-18T16:53:51.750Z,75.29
2022-12-18T16:56:21.892Z,75.66
2022-12-18T16:59:05.238Z,75.36
2022-12-18T17:01:35.277Z,75.56
2022-12-18T17:04:07.096Z,75.60
2022-12-18T17:06:44.453Z,75.55
2022-12-18T17:09:16.762Z,75.96
2022-12-18T17:11:46.165Z,76.18
2022-12-18T17:14:21.508Z,75.55
2022-12-18T17:16:57.911Z,75.05
2022-12-18T17:19:41.515Z,75.22
2022-12-18T17:22:10.475Z,75.15
2022-12-18T17:24:39.468Z,75.44
2022-12-18T17:27:09.952Z,75.31
2022-12-18T17:29:47.353Z,75.17
2022-12-18T17:32:18.473Z,74.89
2022-12-18T17:34:51.149Z,74.95
2022-12-18T17:37:22.238Z,74.79
2022-12-18T17:39:53.876Z,75.36
2022-12-18T17:42:22.969Z,75.59
2022-12-18T17:44:56.123Z,75.53
2022-12-18T17:47:27.078Z,75.06
2022-12-18T17:49:58.509Z,74.88
2022-12-18T17:52:30.051Z,75.30
2022-12-18T17:55:00.825Z,75.46
2022-12-18T17:57:31.091Z,74.84
2022-12-18T18:00:00.468Z,74.97
2022-12-18T18:02:30.231Z,74.32
2022-12-18T18:05:01.543Z,74.43
2022-12-18T18:07:32.186Z,75.14
2022-12-18T18:10:03.291Z,75.65
2022-12-18T18:12:52.703Z,75.74
2022-12-18T18:15:24.933Z,74.89
2022-12-18T18:17:54.155Z,74.47
2022-12-18T18:20:23.079Z,74.32
2022-12-18T18:22:52.884Z,75.18
2022-12-18T18:25:22.326Z,75.06
2022-12-18T18:27:51.656Z,74.62
2022-12-18T18:30:21.758Z,74.54
2022-12-18T18:32:50.877Z,74.85
2022-12-18T18:35:52.407Z,75.01
2022-12-18T18:38:48.249Z,75.19
2022-12-18T18:41:19.469Z,74.91
2022-12-18T18:43:49.536Z,74.91
2022-12-18T18:46:23.672Z,74.97
2022-12-18T18:48:54.491Z,75.01
2022-12-18T18:51:24.092Z,74.98
2022-12-18T18:53:53.663Z,75.17
2022-12-18T18:59:13.662Z,74.79
2022-12-18T19:01:42.497Z,75.00
2022-12-18T19:04:11.387Z,75.52
2022-12-18T19:06:40.439Z,75.20
2022-12-18T19:09:09.913Z,74.97
2022-12-18T19:11:58.537Z,74.83
2022-12-18T19:14:27.195Z,75.07
2022-12-18T19:16:56.216Z,75.60
2022-12-18T19:19:25.939Z,75.93
2022-12-18T19:21:54.860Z,75.52
2022-12-18T19:24:23.652Z,75.22
2022-12-18T19:26:52.437Z,74.98
2022-12-18T19:29:25.280Z,74.95
2022-12-18T19:31:53.875Z,74.77
2022-12-18T19:34:22.793Z,75.36
2022-12-18T19:36:56.474Z,75.31
2022-12-18T19:39:28.429Z,74.93
2022-12-18T19:41:57.271Z,75.05
2022-12-18T19:44:25.892Z,74.87
2022-12-18T19:46:54.375Z,74.82
2022-12-18T19:49:23.026Z,74.95
2022-12-18T19:51:52.438Z,75.48
2022-12-18T19:54:21.273Z,75.33
2022-12-18T19:56:50.265Z,75.02
2022-12-18T19:59:18.855Z,75.22
2022-12-18T20:01:47.743Z,75.15
2022-12-18T20:04:16.731Z,75.46
2022-12-18T20:06:53.819Z,76.04
2022-12-18T20:09:22.575Z,76.00
2022-12-18T20:11:51.444Z,75.91
2022-12-18T20:14:22.981Z,75.85
2022-12-18T20:16:53.333Z,76.36
2022-12-18T20:19:22.795Z,76.47
2022-12-18T20:25:25.041Z,76.28
2022-12-18T20:27:53.785Z,76.37
2022-12-18T20:30:22.391Z,75.93
2022-12-18T20:32:51.051Z,75.60
2022-12-18T20:35:19.964Z,75.53
2022-12-18T20:37:50.884Z,75.62
2022-12-18T20:40:20.654Z,75.88
2022-12-18T20:42:49.325Z,75.74
2022-12-18T20:45:21.258Z,76.00
2022-12-18T20:47:49.931Z,75.47
2022-12-18T20:50:18.899Z,75.62
2022-12-18T20:52:48.916Z,75.63
2022-12-18T20:55:17.605Z,75.87
2022-12-18T20:57:46.151Z,75.83
2022-12-18T21:00:16.651Z,75.92
2022-12-18T21:02:50.027Z,76.38
2022-12-18T21:05:19.012Z,76.08
2022-12-18T21:07:47.678Z,76.21
2022-12-18T21:10:16.245Z,76.21
2022-12-18T21:12:53.029Z,76.00
2022-12-18T21:15:29.846Z,76.42
2022-12-18T21:17:59.115Z,76.19
2022-12-18T21:20:27.882Z,76.04
2022-12-18T21:22:57.353Z,75.97
2022-12-18T21:25:31.593Z,75.75
2022-12-18T21:28:03.468Z,76.49
2022-12-18T21:30:32.123Z,75.87
2022-12-18T21:33:00.808Z,74.82
2022-12-18T21:35:29.788Z,73.77
2022-12-18T21:38:00.728Z,73.16
2022-12-18T21:40:32.530Z,73.15
2022-12-18T21:43:19.777Z,72.56
2022-12-18T21:45:48.267Z,72.30
2022-12-18T21:48:16.814Z,71.65
2022-12-18T21:54:06.315Z,71.13
2022-12-18T21:56:58.742Z,71.14
2022-12-18T21:59:37.152Z,70.52
2022-12-18T22:02:18.780Z,70.00
2022-12-18T22:04:48.650Z,70.38
2022-12-18T22:07:17.612Z,70.26
2022-12-18T22:09:46.217Z,70.21
2022-12-18T22:12:35.606Z,69.96
2022-12-18T22:15:06.581Z,70.45
2022-12-18T22:17:35.122Z,69.98
2022-12-18T22:20:04.003Z,69.85
2022-12-18T22:22:32.583Z,69.55
2022-12-18T22:25:01.129Z,69.52
2022-12-18T22:27:29.760Z,69.94
2022-12-18T22:30:06.943Z,70.11
2022-12-18T22:32:36.542Z,70.11
2022-12-18T22:35:10.651Z,70.32
2022-12-18T22:37:44.234Z,70.80
2022-12-18T22:40:27.064Z,71.55
2022-12-18T22:42:56.269Z,71.51
2022-12-18T22:45:26.663Z,71.16
2022-12-18T22:47:55.313Z,70.75
2022-12-18T22:50:23.854Z,70.87
2022-12-18T22:52:52.356Z,71.15
2022-12-18T22:55:21.042Z,71.66
2022-12-18T22:57:52.850Z,71.87
2022-12-18T23:00:24.136Z,71.82
2022-12-18T23:02:59.682Z,71.34
2022-12-18T23:05:31.619Z,71.26
2022-12-18T23:08:00.425Z,70.76
2022-12-18T23:10:29.421Z,70.89
2022-12-18T23:12:57.964Z,70.87
2022-12-18T23:15:28.329Z,71.82
2022-12-18T23:18:00.972Z,72.40
2022-12-18T23:20:29.487Z,72.47
2022-12-18T23:22:58.046Z,73.03
2022-12-18T23:25:26.627Z,73.06
2022-12-18T23:27:55.131Z,73.67
2022-12-18T23:30:23.732Z,73.51
2022-12-18T23:32:52.249Z,74.11
2022-12-18T23:35:20.819Z,74.43
2022-12-18T23:37:59.369Z,73.83
2022-12-18T23:40:30.025Z,73.54
2022-12-18T23:43:00.481Z,73.41
2022-12-18T23:45:29.154Z,73.67
2022-12-18T23:47:57.671Z,73.76
2022-12-18T23:50:29.429Z,74.06
2022-12-18T23:53:00.786Z,74.08
2022-12-18T23:55:39.950Z,73.49
2022-12-18T23:58:19.800Z,72.85
